sensor_id;sensor_type;location;lat;lon;timestamp;pressure;altitude;pressure_sealevel;temperature;humidity
67109;BME280;54027;50.786;7.058;2022-07-29T00:02:05;101019.25;;;18.09;55.47
67109;BME280;54027;50.786;7.058;2022-07-29T00:04:30;101027.19;;;18.07;55.52
67109;BME280;54027;50.786;7.058;2022-07-29T00:06:55;101022.69;;;18.09;56.37
67109;BME280;54027;50.786;7.058;2022-07-29T00:09:21;101033.41;;;18.06;56.74
67109;BME280;54027;50.786;7.058;2022-07-29T00:11:46;101033.41;;;18.06;57.21
67109;BME280;54027;50.786;7.058;2022-07-29T00:14:11;101022.88;;;18.06;56.79
67109;BME280;54027;50.786;7.058;2022-07-29T00:16:37;101029.06;;;18.05;56.82
67109;BME280;54027;50.786;7.058;2022-07-29T00:19:02;101029.91;;;18.06;57.41
67109;BME280;54027;50.786;7.058;2022-07-29T00:21:28;101027.19;;;18.07;57.22
67109;BME280;54027;50.786;7.058;2022-07-29T00:23:53;101028.91;;;18.08;57.11
67109;BME280;54027;50.786;7.058;2022-07-29T00:26:18;101014.13;;;18.06;56.59
67109;BME280;54027;50.786;7.058;2022-07-29T00:28:44;101014.91;;;18.08;57.04
67109;BME280;54027;50.786;7.058;2022-07-29T00:31:09;101006.78;;;18.12;57.05
67109;BME280;54027;50.786;7.058;2022-07-29T00:33:34;101008.78;;;18.07;57.38
67109;BME280;54027;50.786;7.058;2022-07-29T00:36:00;101007.16;;;18.05;56.66
67109;BME280;54027;50.786;7.058;2022-07-29T00:38:25;101004.53;;;18.05;56.15
67109;BME280;54027;50.786;7.058;2022-07-29T00:40:50;101005.53;;;18.02;56.91
67109;BME280;54027;50.786;7.058;2022-07-29T00:43:16;100994.13;;;18.03;56.88
67109;BME280;54027;50.786;7.058;2022-07-29T00:45:42;100996.78;;;18.02;56.90
67109;BME280;54027;50.786;7.058;2022-07-29T00:48:07;100986.28;;;18.02;55.82
67109;BME280;54027;50.786;7.058;2022-07-29T00:50:34;100987.91;;;18.04;56.35
67109;BME280;54027;50.786;7.058;2022-07-29T00:52:59;100990.63;;;18.03;56.70
67109;BME280;54027;50.786;7.058;2022-07-29T00:55:25;100979.41;;;17.99;56.68
67109;BME280;54027;50.786;7.058;2022-07-29T00:57:51;100982.09;;;17.98;56.26
67109;BME280;54027;50.786;7.058;2022-07-29T01:00:19;100979.25;;;18.02;55.24
67109;BME280;54027;50.786;7.058;2022-07-29T01:02:45;100977.53;;;18.01;55.58
67109;BME280;54027;50.786;7.058;2022-07-29T01:05:13;100969.59;;;18.03;55.59
67109;BME280;54027;50.786;7.058;2022-07-29T01:07:39;100970.44;;;18.03;55.78
67109;BME280;54027;50.786;7.058;2022-07-29T01:10:05;100967.13;;;18.00;56.09
67109;BME280;54027;50.786;7.058;2022-07-29T01:12:31;100965.53;;;17.96;55.48
67109;BME280;54027;50.786;7.058;2022-07-29T01:14:58;100966.41;;;17.96;56.00
67109;BME280;54027;50.786;7.058;2022-07-29T01:30:46;100960.28;;;17.96;56.89
67109;BME280;54027;50.786;7.058;2022-07-29T01:33:15;100959.44;;;17.95;57.56
67109;BME280;54027;50.786;7.058;2022-07-29T01:36:04;100954.03;;;17.98;57.01
67109;BME280;54027;50.786;7.058;2022-07-29T01:38:31;100957.50;;;17.99;56.91
67109;BME280;54027;50.786;7.058;2022-07-29T01:41:02;100951.50;;;17.97;57.26
67109;BME280;54027;50.786;7.058;2022-07-29T01:43:35;100949.00;;;17.94;57.68
67109;BME280;54027;50.786;7.058;2022-07-29T01:46:04;100955.94;;;17.95;57.18
67109;BME280;54027;50.786;7.058;2022-07-29T01:48:37;100948.16;;;17.93;57.57
67109;BME280;54027;50.786;7.058;2022-07-29T01:51:24;100954.56;;;17.88;57.34
67109;BME280;54027;50.786;7.058;2022-07-29T01:53:58;100947.59;;;17.87;57.73
67109;BME280;54027;50.786;7.058;2022-07-29T01:56:26;100945.09;;;17.84;58.08
67109;BME280;54027;50.786;7.058;2022-07-29T01:58:55;100944.34;;;17.82;57.30
67109;BME280;54027;50.786;7.058;2022-07-29T02:01:22;100932.91;;;17.83;56.92
67109;BME280;54027;50.786;7.058;2022-07-29T02:03:49;100936.47;;;17.82;57.55
67109;BME280;54027;50.786;7.058;2022-07-29T02:06:16;100931.19;;;17.82;57.72
67109;BME280;54027;50.786;7.058;2022-07-29T02:08:44;100932.25;;;17.78;57.89
67109;BME280;54027;50.786;7.058;2022-07-29T02:11:10;100929.72;;;17.76;57.89
67109;BME280;54027;50.786;7.058;2022-07-29T02:13:36;100925.38;;;17.75;57.89
67109;BME280;54027;50.786;7.058;2022-07-29T02:16:02;100932.41;;;17.75;58.01
67109;BME280;54027;50.786;7.058;2022-07-29T02:18:29;100932.78;;;17.67;57.68
67109;BME280;54027;50.786;7.058;2022-07-29T02:20:55;100930.88;;;17.71;57.86
67109;BME280;54027;50.786;7.058;2022-07-29T02:23:22;100928.59;;;17.63;57.66
67109;BME280;54027;50.786;7.058;2022-07-29T02:25:49;100924.34;;;17.60;57.83
67109;BME280;54027;50.786;7.058;2022-07-29T02:28:14;100924.41;;;17.59;57.56
67109;BME280;54027;50.786;7.058;2022-07-29T02:30:41;100924.53;;;17.56;57.71
67109;BME280;54027;50.786;7.058;2022-07-29T02:33:07;100926.38;;;17.54;58.21
67109;BME280;54027;50.786;7.058;2022-07-29T02:35:33;100935.19;;;17.53;58.03
67109;BME280;54027;50.786;7.058;2022-07-29T02:37:59;100933.41;;;17.53;58.05
67109;BME280;54027;50.786;7.058;2022-07-29T02:40:43;100931.75;;;17.51;58.21
67109;BME280;54027;50.786;7.058;2022-07-29T02:43:08;100937.16;;;17.48;58.63
67109;BME280;54027;50.786;7.058;2022-07-29T02:45:35;100940.66;;;17.48;58.38
67109;BME280;54027;50.786;7.058;2022-07-29T02:48:02;100938.94;;;17.47;58.27
67109;BME280;54027;50.786;7.058;2022-07-29T02:50:31;100935.34;;;17.50;59.04
67109;BME280;54027;50.786;7.058;2022-07-29T02:53:00;100938.78;;;17.50;59.03
67109;BME280;54027;50.786;7.058;2022-07-29T02:55:40;100938.66;;;17.53;58.95
67109;BME280;54027;50.786;7.058;2022-07-29T02:58:10;100941.34;;;17.52;58.73
67109;BME280;54027;50.786;7.058;2022-07-29T03:00:39;100939.78;;;17.48;58.43
67109;BME280;54027;50.786;7.058;2022-07-29T03:03:07;100943.22;;;17.50;58.70
67109;BME280;54027;50.786;7.058;2022-07-29T03:05:34;100948.38;;;17.51;59.18
67109;BME280;54027;50.786;7.058;2022-07-29T03:08:02;100945.91;;;17.48;58.55
67109;BME280;54027;50.786;7.058;2022-07-29T03:10:28;100957.19;;;17.50;58.38
67109;BME280;54027;50.786;7.058;2022-07-29T03:12:55;100948.00;;;17.60;58.04
67109;BME280;54027;50.786;7.058;2022-07-29T03:15:21;100946.66;;;17.50;58.09
67109;BME280;54027;50.786;7.058;2022-07-29T03:17:46;100951.47;;;17.61;57.68
67109;BME280;54027;50.786;7.058;2022-07-29T03:20:12;100951.59;;;17.58;58.32
67109;BME280;54027;50.786;7.058;2022-07-29T03:22:38;100956.13;;;17.54;59.07
67109;BME280;54027;50.786;7.058;2022-07-29T03:25:08;100949.94;;;17.55;58.97
67109;BME280;54027;50.786;7.058;2022-07-29T03:27:34;100955.91;;;17.59;58.90
67109;BME280;54027;50.786;7.058;2022-07-29T03:29:59;100943.84;;;17.55;58.91
67109;BME280;54027;50.786;7.058;2022-07-29T03:32:24;100948.19;;;17.56;57.46
67109;BME280;54027;50.786;7.058;2022-07-29T03:34:50;100956.84;;;17.58;57.61
67109;BME280;54027;50.786;7.058;2022-07-29T03:37:15;100955.91;;;17.59;56.18
67109;BME280;54027;50.786;7.058;2022-07-29T03:39:40;100956.84;;;17.58;56.98
67109;BME280;54027;50.786;7.058;2022-07-29T03:42:06;100954.16;;;17.59;56.55
67109;BME280;54027;50.786;7.058;2022-07-29T03:44:33;100949.09;;;17.55;57.49
67109;BME280;54027;50.786;7.058;2022-07-29T03:46:59;100944.91;;;17.51;57.51
67109;BME280;54027;50.786;7.058;2022-07-29T03:49:27;100951.63;;;17.56;57.26
67109;BME280;54027;50.786;7.058;2022-07-29T03:51:53;100952.50;;;17.57;57.05
67109;BME280;54027;50.786;7.058;2022-07-29T03:54:18;100947.13;;;17.60;57.31
67109;BME280;54027;50.786;7.058;2022-07-29T03:56:44;100952.63;;;17.54;58.02
67109;BME280;54027;50.786;7.058;2022-07-29T03:59:14;100952.63;;;17.54;58.44
67109;BME280;54027;50.786;7.058;2022-07-29T04:01:40;100945.75;;;17.51;58.55
67109;BME280;54027;50.786;7.058;2022-07-29T04:04:06;100943.50;;;17.44;58.10
67109;BME280;54027;50.786;7.058;2022-07-29T04:06:41;100950.53;;;17.43;58.49
67109;BME280;54027;50.786;7.058;2022-07-29T04:09:07;100955.19;;;17.37;59.08
67109;BME280;54027;50.786;7.058;2022-07-29T04:11:32;100949.88;;;17.38;58.99
67109;BME280;54027;50.786;7.058;2022-07-29T04:13:57;100953.19;;;17.42;59.18
67109;BME280;54027;50.786;7.058;2022-07-29T04:16:23;100950.44;;;17.45;58.90
67109;BME280;54027;50.786;7.058;2022-07-29T04:18:48;100954.00;;;17.44;58.47
67109;BME280;54027;50.786;7.058;2022-07-29T04:21:13;100965.13;;;17.49;58.92
67109;BME280;54027;50.786;7.058;2022-07-29T04:23:39;100971.53;;;17.43;59.29
67109;BME280;54027;50.786;7.058;2022-07-29T04:26:06;100971.66;;;17.40;59.45
67109;BME280;54027;50.786;7.058;2022-07-29T04:28:34;100969.03;;;17.40;59.67
67109;BME280;54027;50.786;7.058;2022-07-29T04:30:59;100971.66;;;17.40;59.87
67109;BME280;54027;50.786;7.058;2022-07-29T04:33:25;100977.78;;;17.41;60.33
67109;BME280;54027;50.786;7.058;2022-07-29T04:35:51;100982.91;;;17.44;60.03
67109;BME280;54027;50.786;7.058;2022-07-29T04:38:16;100987.34;;;17.42;60.29
67109;BME280;54027;50.786;7.058;2022-07-29T04:40:41;100976.84;;;17.42;60.70
67109;BME280;54027;50.786;7.058;2022-07-29T04:43:06;100978.41;;;17.46;59.68
67109;BME280;54027;50.786;7.058;2022-07-29T04:45:32;100974.03;;;17.46;57.77
67109;BME280;54027;50.786;7.058;2022-07-29T04:47:57;100980.91;;;17.49;58.82
67109;BME280;54027;50.786;7.058;2022-07-29T04:50:22;100989.41;;;17.54;58.59
67109;BME280;54027;50.786;7.058;2022-07-29T04:52:48;100984.00;;;17.57;57.93
67109;BME280;54027;50.786;7.058;2022-07-29T04:55:13;100994.53;;;17.57;58.01
67109;BME280;54027;50.786;7.058;2022-07-29T04:57:38;100999.06;;;17.53;59.12
67109;BME280;54027;50.786;7.058;2022-07-29T05:00:05;101001.63;;;17.55;59.12
67109;BME280;54027;50.786;7.058;2022-07-29T05:02:30;100994.47;;;17.58;59.02
67109;BME280;54027;50.786;7.058;2022-07-29T05:04:56;100997.09;;;17.58;59.33
67109;BME280;54027;50.786;7.058;2022-07-29T05:07:21;100994.47;;;17.58;59.02
67109;BME280;54027;50.786;7.058;2022-07-29T05:09:47;100999.63;;;17.62;59.02
67109;BME280;54027;50.786;7.058;2022-07-29T05:12:12;100998.53;;;17.66;58.88
67109;BME280;54027;50.786;7.058;2022-07-29T05:14:37;101000.25;;;17.67;59.27
67109;BME280;54027;50.786;7.058;2022-07-29T05:17:03;101003.63;;;17.69;57.08
67109;BME280;54027;50.786;7.058;2022-07-29T05:19:28;101021.13;;;17.70;58.17
67109;BME280;54027;50.786;7.058;2022-07-29T05:21:53;101005.94;;;17.76;57.66
67109;BME280;54027;50.786;7.058;2022-07-29T05:24:19;101017.28;;;17.77;57.82
67109;BME280;54027;50.786;7.058;2022-07-29T05:26:44;101020.75;;;17.77;57.60
67109;BME280;54027;50.786;7.058;2022-07-29T05:29:09;101014.66;;;17.77;55.73
67109;BME280;54027;50.786;7.058;2022-07-29T05:31:35;101017.84;;;17.83;55.43
67109;BME280;54027;50.786;7.058;2022-07-29T05:34:00;101019.78;;;17.80;54.75
67109;BME280;54027;50.786;7.058;2022-07-29T05:36:25;101021.19;;;17.87;54.79
67109;BME280;54027;50.786;7.058;2022-07-29T05:38:51;101025.38;;;17.91;53.09
67109;BME280;54027;50.786;7.058;2022-07-29T05:41:17;101029.84;;;17.89;53.60
67109;BME280;54027;50.786;7.058;2022-07-29T05:43:42;101038.28;;;17.95;52.25
67109;BME280;54027;50.786;7.058;2022-07-29T05:46:07;101046.88;;;17.99;51.87
67109;BME280;54027;50.786;7.058;2022-07-29T05:48:33;101045.31;;;17.95;51.27
67109;BME280;54027;50.786;7.058;2022-07-29T05:50:58;101057.63;;;17.94;52.16
67109;BME280;54027;50.786;7.058;2022-07-29T05:53:23;101060.41;;;17.91;52.51
67109;BME280;54027;50.786;7.058;2022-07-29T05:55:49;101065.66;;;17.91;51.64
67109;BME280;54027;50.786;7.058;2022-07-29T05:58:15;101060.88;;;17.99;51.63
67109;BME280;54027;50.786;7.058;2022-07-29T06:00:40;101066.78;;;18.04;51.44
67109;BME280;54027;50.786;7.058;2022-07-29T06:03:05;101071.16;;;18.04;53.04
67109;BME280;54027;50.786;7.058;2022-07-29T06:05:31;101070.13;;;18.08;54.21
67109;BME280;54027;50.786;7.058;2022-07-29T06:07:56;101079.56;;;18.12;54.86
67109;BME280;54027;50.786;7.058;2022-07-29T06:10:21;101087.38;;;18.13;54.87
67109;BME280;54027;50.786;7.058;2022-07-29T06:12:47;101092.72;;;18.12;54.61
67109;BME280;54027;50.786;7.058;2022-07-29T06:15:12;101084.69;;;18.15;54.72
67109;BME280;54027;50.786;7.058;2022-07-29T06:17:37;101082.88;;;18.15;53.24
67109;BME280;54027;50.786;7.058;2022-07-29T06:20:03;101087.31;;;18.15;53.22
67109;BME280;54027;50.786;7.058;2022-07-29T06:22:28;101077.56;;;18.17;52.89
67109;BME280;54027;50.786;7.058;2022-07-29T06:24:54;101081.81;;;18.20;53.22
67109;BME280;54027;50.786;7.058;2022-07-29T06:27:19;101083.34;;;18.06;53.23
67109;BME280;54027;50.786;7.058;2022-07-29T06:29:45;101077.56;;;18.17;52.51
67109;BME280;54027;50.786;7.058;2022-07-29T06:32:10;101078.28;;;18.21;52.43
67109;BME280;54027;50.786;7.058;2022-07-29T06:34:35;101084.59;;;18.16;52.84
67109;BME280;54027;50.786;7.058;2022-07-29T06:37:05;101078.91;;;18.26;52.54
67109;BME280;54027;50.786;7.058;2022-07-29T06:39:30;101075.41;;;18.25;52.90
67109;BME280;54027;50.786;7.058;2022-07-29T06:41:56;101071.88;;;18.26;52.42
67109;BME280;54027;50.786;7.058;2022-07-29T06:44:21;101075.28;;;18.28;52.71
67109;BME280;54027;50.786;7.058;2022-07-29T06:46:46;101071.63;;;18.31;53.76
67109;BME280;54027;50.786;7.058;2022-07-29T06:49:14;101076.69;;;18.35;52.67
67109;BME280;54027;50.786;7.058;2022-07-29T06:51:39;101080.84;;;18.39;52.64
67109;BME280;54027;50.786;7.058;2022-07-29T06:54:05;101077.47;;;18.37;51.67
67109;BME280;54027;50.786;7.058;2022-07-29T06:56:31;101070.34;;;18.39;51.61
67109;BME280;54027;50.786;7.058;2022-07-29T06:58:56;101072.06;;;18.40;51.23
67109;BME280;54027;50.786;7.058;2022-07-29T07:01:22;101061.53;;;18.40;50.52
67109;BME280;54027;50.786;7.058;2022-07-29T07:03:47;101070.19;;;18.42;51.15
67109;BME280;54027;50.786;7.058;2022-07-29T07:06:12;101067.50;;;18.44;50.10
67109;BME280;54027;50.786;7.058;2022-07-29T07:08:38;101060.41;;;18.46;49.97
67109;BME280;54027;50.786;7.058;2022-07-29T07:11:03;101056.06;;;18.45;50.55
67109;BME280;54027;50.786;7.058;2022-07-29T07:13:29;101066.38;;;18.49;51.26
67109;BME280;54027;50.786;7.058;2022-07-29T07:15:59;101068.94;;;18.51;51.35
67109;BME280;54027;50.786;7.058;2022-07-29T07:18:24;101066.38;;;18.49;50.88
67109;BME280;54027;50.786;7.058;2022-07-29T07:20:49;101065.38;;;18.52;49.88
67109;BME280;54027;50.786;7.058;2022-07-29T07:23:15;101074.28;;;18.49;50.69
67109;BME280;54027;50.786;7.058;2022-07-29T07:25:40;101070.72;;;18.50;50.55
67109;BME280;54027;50.786;7.058;2022-07-29T07:28:05;101081.31;;;18.49;50.25
67109;BME280;54027;50.786;7.058;2022-07-29T07:30:31;101083.06;;;18.48;50.79
67109;BME280;54027;50.786;7.058;2022-07-29T07:32:56;101086.66;;;18.47;50.04
67109;BME280;54027;50.786;7.058;2022-07-29T07:35:21;101083.28;;;18.44;50.40
67109;BME280;54027;50.786;7.058;2022-07-29T07:37:47;101084.78;;;18.49;50.23
67109;BME280;54027;50.786;7.058;2022-07-29T07:40:12;101079.75;;;18.45;50.12
67109;BME280;54027;50.786;7.058;2022-07-29T07:42:38;101074.41;;;18.46;50.67
67109;BME280;54027;50.786;7.058;2022-07-29T07:45:06;101080.09;;;18.37;52.68
67109;BME280;54027;50.786;7.058;2022-07-29T07:47:34;101075.38;;;18.44;53.16
67109;BME280;54027;50.786;7.058;2022-07-29T07:49:59;101084.03;;;18.47;54.25
67109;BME280;54027;50.786;7.058;2022-07-29T07:52:53;101082.31;;;18.46;53.92
67109;BME280;54027;50.786;7.058;2022-07-29T07:55:18;101078.81;;;18.46;54.78
67109;BME280;54027;50.786;7.058;2022-07-29T07:57:44;101083.03;;;18.50;54.85
67109;BME280;54027;50.786;7.058;2022-07-29T08:00:10;101081.56;;;18.43;55.50
67109;BME280;54027;50.786;7.058;2022-07-29T08:02:35;101076.00;;;18.50;55.28
67109;BME280;54027;50.786;7.058;2022-07-29T08:05:00;101064.31;;;18.56;54.86
67109;BME280;54027;50.786;7.058;2022-07-29T08:07:26;101067.00;;;18.54;54.76
67109;BME280;54027;50.786;7.058;2022-07-29T08:09:51;101065.94;;;18.58;54.83
67109;BME280;54027;50.786;7.058;2022-07-29T08:12:16;101068.25;;;18.64;56.04
67109;BME280;54027;50.786;7.058;2022-07-29T08:14:42;101070.03;;;18.64;55.29
67109;BME280;54027;50.786;7.058;2022-07-29T08:17:07;101078.84;;;18.63;54.98
67109;BME280;54027;50.786;7.058;2022-07-29T08:19:32;101075.22;;;18.65;53.80
67109;BME280;54027;50.786;7.058;2022-07-29T08:21:58;101078.47;;;18.70;54.63
67109;BME280;54027;50.786;7.058;2022-07-29T08:24:23;101079.50;;;18.68;53.97
67109;BME280;54027;50.786;7.058;2022-07-29T08:27:07;101075.84;;;18.70;55.13
67109;BME280;54027;50.786;7.058;2022-07-29T08:29:32;101067.66;;;18.77;55.12
67109;BME280;54027;50.786;7.058;2022-07-29T08:31:57;101078.09;;;18.78;54.38
67109;BME280;54027;50.786;7.058;2022-07-29T08:34:23;101074.63;;;18.78;54.12
67109;BME280;54027;50.786;7.058;2022-07-29T08:36:48;101069.56;;;18.73;54.21
67109;BME280;54027;50.786;7.058;2022-07-29T08:39:13;101070.59;;;18.70;54.89
67109;BME280;54027;50.786;7.058;2022-07-29T08:41:39;101073.69;;;18.79;54.67
67109;BME280;54027;50.786;7.058;2022-07-29T08:44:04;101072.91;;;18.77;54.89
67109;BME280;54027;50.786;7.058;2022-07-29T08:46:29;101076.41;;;18.77;54.52
67109;BME280;54027;50.786;7.058;2022-07-29T08:48:55;101067.66;;;18.77;55.01
67109;BME280;54027;50.786;7.058;2022-07-29T08:51:21;101067.50;;;18.80;54.42
67109;BME280;54027;50.786;7.058;2022-07-29T08:53:47;101065.47;;;18.85;54.67
67109;BME280;54027;50.786;7.058;2022-07-29T08:56:14;101070.03;;;18.81;56.03
67109;BME280;54027;50.786;7.058;2022-07-29T08:58:40;101073.47;;;18.83;55.86
67109;BME280;54027;50.786;7.058;2022-07-29T09:01:09;101080.41;;;18.84;56.63
67109;BME280;54027;50.786;7.058;2022-07-29T09:03:36;101072.75;;;18.80;57.59
67109;BME280;54027;50.786;7.058;2022-07-29T09:06:02;101063.78;;;18.84;56.31
67109;BME280;54027;50.786;7.058;2022-07-29T09:08:28;101071.69;;;18.84;56.43
67109;BME280;54027;50.786;7.058;2022-07-29T09:10:54;101064.78;;;18.81;56.39
67109;BME280;54027;50.786;7.058;2022-07-29T09:13:21;101067.19;;;18.86;56.08
67109;BME280;54027;50.786;7.058;2022-07-29T09:15:46;101060.00;;;18.89;56.10
67109;BME280;54027;50.786;7.058;2022-07-29T09:18:11;101056.25;;;18.93;56.35
67109;BME280;54027;50.786;7.058;2022-07-29T09:20:37;101056.81;;;19.00;55.51
67109;BME280;54027;50.786;7.058;2022-07-29T09:23:20;101063.47;;;19.07;56.43
67109;BME280;54027;50.786;7.058;2022-07-29T09:25:46;101065.31;;;19.05;56.82
67109;BME280;54027;50.786;7.058;2022-07-29T09:28:15;101069.34;;;19.12;56.27
67109;BME280;54027;50.786;7.058;2022-07-29T09:30:53;101069.44;;;19.10;55.64
67109;BME280;54027;50.786;7.058;2022-07-29T09:33:18;101060.69;;;19.10;55.94
67109;BME280;54027;50.786;7.058;2022-07-29T09:35:44;101058.25;;;19.05;55.79
67109;BME280;54027;50.786;7.058;2022-07-29T09:38:10;101063.38;;;19.08;55.84
67109;BME280;54027;50.786;7.058;2022-07-29T09:40:35;101058.81;;;19.12;55.92
67109;BME280;54027;50.786;7.058;2022-07-29T09:43:08;101063.38;;;19.08;54.81
67109;BME280;54027;50.786;7.058;2022-07-29T09:45:37;101052.13;;;19.05;54.68
67109;BME280;54027;50.786;7.058;2022-07-29T09:48:16;101057.09;;;19.11;54.54
67109;BME280;54027;50.786;7.058;2022-07-29T09:50:42;101059.50;;;19.15;54.74
67109;BME280;54027;50.786;7.058;2022-07-29T09:53:09;101060.19;;;19.19;54.65
67109;BME280;54027;50.786;7.058;2022-07-29T09:55:48;101061.03;;;19.19;54.26
67109;BME280;54027;50.786;7.058;2022-07-29T09:58:17;101056.00;;;19.32;53.87
67109;BME280;54027;50.786;7.058;2022-07-29T10:00:42;101057.72;;;19.33;53.80
67109;BME280;54027;50.786;7.058;2022-07-29T10:03:08;101054.16;;;19.34;54.12
67109;BME280;54027;50.786;7.058;2022-07-29T10:05:33;101056.00;;;19.32;54.00
67109;BME280;54027;50.786;7.058;2022-07-29T10:07:59;101056.81;;;19.34;53.43
67109;BME280;54027;50.786;7.058;2022-07-29T10:10:30;101051.28;;;19.39;53.57
67109;BME280;54027;50.786;7.058;2022-07-29T10:12:56;101050.25;;;19.41;54.99
67109;BME280;54027;50.786;7.058;2022-07-29T10:15:23;101046.47;;;19.62;52.24
67109;BME280;54027;50.786;7.058;2022-07-29T10:17:49;101049.38;;;19.58;51.82
67109;BME280;54027;50.786;7.058;2022-07-29T10:20:15;101046.56;;;19.61;52.35
67109;BME280;54027;50.786;7.058;2022-07-29T10:22:41;101040.94;;;19.51;52.62
67109;BME280;54027;50.786;7.058;2022-07-29T10:25:07;101049.19;;;19.45;53.54
67109;BME280;54027;50.786;7.058;2022-07-29T10:27:32;101040.16;;;19.49;53.38
67109;BME280;54027;50.786;7.058;2022-07-29T10:29:57;101041.75;;;19.69;51.19
67109;BME280;54027;50.786;7.058;2022-07-29T10:32:31;101043.41;;;19.54;51.71
67109;BME280;54027;50.786;7.058;2022-07-29T10:42:54;101036.38;;;19.86;49.47
67109;BME280;54027;50.786;7.058;2022-07-29T10:45:20;101034.34;;;19.91;49.01
67109;BME280;54027;50.786;7.058;2022-07-29T10:47:46;101036.38;;;20.02;49.09
67109;BME280;54027;50.786;7.058;2022-07-29T10:50:11;101037.69;;;20.10;50.31
67109;BME280;54027;50.786;7.058;2022-07-29T10:55:33;101038.28;;;20.15;50.81
67109;BME280;54027;50.786;7.058;2022-07-29T10:58:14;101040.91;;;20.15;51.15
67109;BME280;54027;50.786;7.058;2022-07-29T11:00:40;101041.66;;;20.17;51.98
67109;BME280;54027;50.786;7.058;2022-07-29T11:03:05;101039.41;;;20.11;51.39
67109;BME280;54027;50.786;7.058;2022-07-29T11:05:30;101036.72;;;20.27;50.38
67109;BME280;54027;50.786;7.058;2022-07-29T11:08:16;101027.13;;;20.26;49.19
67109;BME280;54027;50.786;7.058;2022-07-29T11:10:44;101042.34;;;20.05;50.54
67109;BME280;54027;50.786;7.058;2022-07-29T11:13:09;101031.81;;;20.05;48.25
67109;BME280;54027;50.786;7.058;2022-07-29T11:18:32;101031.03;;;20.19;47.71
67109;BME280;54027;50.786;7.058;2022-07-29T11:20:58;101026.44;;;20.22;47.49
67109;BME280;54027;50.786;7.058;2022-07-29T11:23:31;101034.38;;;20.22;46.66
67109;BME280;54027;50.786;7.058;2022-07-29T11:28:36;101035.19;;;20.07;47.90
67109;BME280;54027;50.786;7.058;2022-07-29T11:31:04;101025.31;;;20.26;46.08
67109;BME280;54027;50.786;7.058;2022-07-29T11:33:33;101022.03;;;20.23;45.78
67109;BME280;54027;50.786;7.058;2022-07-29T11:36:31;101023.88;;;20.21;45.66
67109;BME280;54027;50.786;7.058;2022-07-29T11:38:50;101024.34;;;20.13;45.98
67109;BME280;54027;50.786;7.058;2022-07-29T11:43:50;101029.78;;;20.10;47.65
67109;BME280;54027;50.786;7.058;2022-07-29T11:49:21;101026.09;;;20.28;46.41
67109;BME280;54027;50.786;7.058;2022-07-29T11:52:05;101021.06;;;20.24;46.85
67109;BME280;54027;50.786;7.058;2022-07-29T11:54:31;101023.41;;;20.14;47.22
67109;BME280;54027;50.786;7.058;2022-07-29T11:56:57;101028.75;;;20.28;46.41
67109;BME280;54027;50.786;7.058;2022-07-29T11:59:23;101028.41;;;20.19;47.32
67109;BME280;54027;50.786;7.058;2022-07-29T12:01:58;101019.41;;;20.23;46.39
67109;BME280;54027;50.786;7.058;2022-07-29T12:04:24;101027.94;;;20.42;46.70
67109;BME280;54027;50.786;7.058;2022-07-29T12:06:52;101024.91;;;20.18;47.21
67109;BME280;54027;50.786;7.058;2022-07-29T12:09:18;101028.47;;;20.02;48.06
67109;BME280;54027;50.786;7.058;2022-07-29T12:11:44;101027.56;;;20.18;47.52
67109;BME280;54027;50.786;7.058;2022-07-29T12:14:23;101028.47;;;20.33;46.89
67109;BME280;54027;50.786;7.058;2022-07-29T12:16:49;101029.00;;;20.24;47.38
67109;BME280;54027;50.786;7.058;2022-07-29T12:19:14;101028.91;;;20.41;46.25
67109;BME280;54027;50.786;7.058;2022-07-29T12:21:43;101031.84;;;20.51;46.08
67109;BME280;54027;50.786;7.058;2022-07-29T12:24:09;101031.31;;;20.44;46.82
67109;BME280;54027;50.786;7.058;2022-07-29T12:26:34;101023.88;;;20.66;45.87
67109;BME280;54027;50.786;7.058;2022-07-29T12:29:00;101023.13;;;20.64;45.95
67109;BME280;54027;50.786;7.058;2022-07-29T12:31:25;101027.19;;;20.85;45.32
67109;BME280;54027;50.786;7.058;2022-07-29T12:33:53;101015.75;;;20.85;45.25
67109;BME280;54027;50.786;7.058;2022-07-29T12:36:19;101021.63;;;20.74;45.93
67109;BME280;54027;50.786;7.058;2022-07-29T12:38:44;101022.84;;;20.69;46.54
67109;BME280;54027;50.786;7.058;2022-07-29T12:41:10;101018.03;;;20.91;45.72
67109;BME280;54027;50.786;7.058;2022-07-29T12:43:36;101021.91;;;20.70;46.27
67109;BME280;54027;50.786;7.058;2022-07-29T12:46:14;101022.72;;;20.86;45.91
67109;BME280;54027;50.786;7.058;2022-07-29T12:48:40;101019.34;;;20.98;45.91
67109;BME280;54027;50.786;7.058;2022-07-29T12:51:06;101025.22;;;21.03;45.20
67109;BME280;54027;50.786;7.058;2022-07-29T12:53:33;101022.66;;;20.87;45.68
67109;BME280;54027;50.786;7.058;2022-07-29T12:55:58;101019.06;;;20.88;45.37
67109;BME280;54027;50.786;7.058;2022-07-29T13:01:00;101019.16;;;20.87;46.75
67109;BME280;54027;50.786;7.058;2022-07-29T13:03:25;101015.66;;;20.86;46.52
67109;BME280;54027;50.786;7.058;2022-07-29T13:05:50;101012.03;;;21.03;46.08
67109;BME280;54027;50.786;7.058;2022-07-29T13:08:16;101010.00;;;21.07;45.77
67109;BME280;54027;50.786;7.058;2022-07-29T13:10:44;101018.59;;;20.96;46.02
67109;BME280;54027;50.786;7.058;2022-07-29T13:13:13;101016.25;;;20.92;46.05
67109;BME280;54027;50.786;7.058;2022-07-29T13:15:40;101016.81;;;20.97;45.62
67109;BME280;54027;50.786;7.058;2022-07-29T13:18:28;101018.50;;;20.98;44.55
67109;BME280;54027;50.786;7.058;2022-07-29T13:20:52;101018.72;;;21.09;44.50
67109;BME280;54027;50.786;7.058;2022-07-29T13:23:17;101020.94;;;21.01;45.27
67109;BME280;54027;50.786;7.058;2022-07-29T13:25:43;101020.56;;;21.07;44.67
67109;BME280;54027;50.786;7.058;2022-07-29T13:28:08;101027.75;;;20.91;45.61